createdAt,value
2018-03-23T00:00:35.945Z,1.02
2018-03-23T00:03:02.014Z,1.13
2018-03-23T00:05:28.041Z,1.14
2018-03-23T00:07:54.043Z,1.28
2018-03-23T00:10:20.094Z,1.26
2018-03-23T00:12:46.122Z,1.26
2018-03-23T00:15:12.170Z,1.37
2018-03-23T00:17:38.297Z,1.28
2018-03-23T00:20:04.290Z,1.32
2018-03-23T00:22:30.237Z,1.32
2018-03-23T00:24:56.288Z,1.37
2018-03-23T00:27:22.362Z,1.45
2018-03-23T00:29:48.335Z,1.39
2018-03-23T00:32:14.301Z,1.28
2018-03-23T00:34:40.301Z,1.43
2018-03-23T00:37:06.369Z,1.33
2018-03-23T00:39:32.696Z,1.29
2018-03-23T00:41:58.721Z,1.28
2018-03-23T00:44:24.736Z,1.51
2018-03-23T00:46:50.737Z,1.57
2018-03-23T00:49:16.785Z,1.58
2018-03-23T00:51:42.782Z,1.55
2018-03-23T00:54:08.803Z,1.56
2018-03-23T00:56:34.794Z,1.55
2018-03-23T00:59:00.834Z,1.51
2018-03-23T01:01:26.897Z,1.52
2018-03-23T01:03:52.918Z,1.51
2018-03-23T01:06:18.931Z,1.49
2018-03-23T01:08:44.941Z,1.47
2018-03-23T01:11:10.894Z,1.42
2018-03-23T01:13:36.898Z,1.37
2018-03-23T01:16:02.852Z,1.27
2018-03-23T01:18:28.857Z,1.23
2018-03-23T01:20:54.903Z,1.09
2018-03-23T01:23:20.902Z,1.06
2018-03-23T01:25:46.934Z,1.03
2018-03-23T01:28:13.029Z,1.17
2018-03-23T01:30:39.028Z,1.31
2018-03-23T01:33:05.021Z,1.42
2018-03-23T01:35:31.042Z,1.50
2018-03-23T01:37:57.064Z,1.51
2018-03-23T01:40:23.071Z,1.50
2018-03-23T01:42:49.144Z,1.51
2018-03-23T01:45:15.246Z,1.53
2018-03-23T01:47:41.278Z,1.47
2018-03-23T01:50:07.301Z,1.53
2018-03-23T01:52:33.350Z,1.56
2018-03-23T01:54:59.299Z,1.58
2018-03-23T01:57:25.343Z,1.52
2018-03-23T02:02:44.635Z,1.52
2018-03-23T02:05:10.605Z,1.35
2018-03-23T02:07:36.625Z,1.44
2018-03-23T02:10:02.658Z,1.46
2018-03-23T02:12:28.688Z,1.40
2018-03-23T02:14:55.130Z,1.49
2018-03-23T02:17:28.313Z,1.62
2018-03-23T02:19:54.369Z,1.55
2018-03-23T02:22:20.409Z,1.47
2018-03-23T02:24:46.462Z,1.52
2018-03-23T02:27:12.464Z,1.62
2018-03-23T02:29:38.511Z,1.57
2018-03-23T02:32:04.549Z,1.53
2018-03-23T02:34:30.554Z,1.50
2018-03-23T02:36:56.553Z,1.37
2018-03-23T02:39:22.622Z,1.40
2018-03-23T02:41:48.651Z,1.33
2018-03-23T02:44:14.793Z,1.42
2018-03-23T02:46:40.839Z,1.46
2018-03-23T02:49:06.846Z,1.44
2018-03-23T02:51:32.851Z,1.29
2018-03-23T02:53:58.867Z,1.42
2018-03-23T02:56:24.891Z,1.48
2018-03-23T02:58:50.918Z,1.46
2018-03-23T03:01:16.924Z,1.42
2018-03-23T03:03:42.965Z,1.47
2018-03-23T03:06:09.061Z,1.48
2018-03-23T03:08:35.053Z,1.56
2018-03-23T03:11:01.086Z,1.62
2018-03-23T03:13:27.139Z,1.65
2018-03-23T03:15:53.172Z,1.56
2018-03-23T03:18:19.186Z,1.57
2018-03-23T03:20:45.258Z,1.48
2018-03-23T03:23:11.221Z,1.55
2018-03-23T03:25:37.236Z,1.55
2018-03-23T03:28:03.305Z,1.59
2018-03-23T03:30:29.344Z,1.61
2018-03-23T03:32:55.400Z,1.55
2018-03-23T03:35:21.435Z,1.46
2018-03-23T03:37:47.401Z,1.58
2018-03-23T03:40:13.473Z,1.65
2018-03-23T03:42:39.492Z,1.63
2018-03-23T03:45:05.524Z,1.59
2018-03-23T03:47:31.546Z,1.59
2018-03-23T03:49:57.542Z,1.57
2018-03-23T03:52:23.532Z,1.47
2018-03-23T03:54:49.548Z,1.52
2018-03-23T03:57:15.628Z,1.47
2018-03-23T03:59:41.663Z,1.44
2018-03-23T04:02:07.627Z,1.53
2018-03-23T04:04:33.641Z,1.55
2018-03-23T04:06:59.664Z,1.50
2018-03-23T04:09:25.723Z,1.49
2018-03-23T04:11:51.726Z,1.49
2018-03-23T04:14:17.775Z,1.41
2018-03-23T04:16:43.800Z,1.41
2018-03-23T04:19:09.872Z,1.40
2018-03-23T04:21:35.952Z,1.40
2018-03-23T04:24:01.952Z,1.43
2018-03-23T04:26:27.969Z,1.44
2018-03-23T04:28:53.961Z,1.46
2018-03-23T04:31:20.080Z,1.36
2018-03-23T04:33:46.093Z,1.38
2018-03-23T04:36:12.128Z,1.42
2018-03-23T04:38:38.137Z,1.33
2018-03-23T04:41:04.184Z,1.42
2018-03-23T04:43:30.246Z,1.39
2018-03-23T04:45:56.297Z,1.44
2018-03-23T04:48:22.396Z,1.48
2018-03-23T04:50:48.402Z,1.43
2018-03-23T04:53:14.429Z,1.44
2018-03-23T04:55:40.532Z,1.44
2018-03-23T04:58:06.518Z,1.45
2018-03-23T05:00:32.513Z,1.47
2018-03-23T05:02:58.541Z,1.47
2018-03-23T05:05:24.575Z,1.39
2018-03-23T05:07:50.923Z,1.30
2018-03-23T05:10:17.049Z,1.36
2018-03-23T05:12:43.062Z,1.17
2018-03-23T05:15:09.146Z,1.31
2018-03-23T05:17:35.190Z,1.44
2018-03-23T05:20:01.593Z,1.52
2018-03-23T05:22:27.577Z,1.33
2018-03-23T05:24:53.629Z,1.42
2018-03-23T05:27:19.643Z,1.47
2018-03-23T05:29:45.673Z,1.49
2018-03-23T05:32:11.731Z,1.38
2018-03-23T05:34:37.753Z,1.51
2018-03-23T05:37:03.772Z,1.45
2018-03-23T05:39:29.841Z,1.54
2018-03-23T05:41:55.797Z,1.45
2018-03-23T05:44:21.848Z,1.36
2018-03-23T05:46:47.885Z,1.27
2018-03-23T05:49:13.885Z,1.35
2018-03-23T05:51:39.894Z,1.30
2018-03-23T05:54:05.927Z,1.32
2018-03-23T05:56:32.785Z,1.46
2018-03-23T05:58:58.808Z,1.54
2018-03-23T06:01:24.965Z,1.59
2018-03-23T06:03:50.954Z,1.64
2018-03-23T06:06:16.974Z,1.59
2018-03-23T06:08:43.073Z,1.60
2018-03-23T06:11:09.076Z,1.68
2018-03-23T06:13:35.249Z,1.72
2018-03-23T06:16:01.321Z,1.73
2018-03-23T06:18:27.430Z,1.81
2018-03-23T06:20:53.439Z,1.81
2018-03-23T06:23:19.515Z,1.77
2018-03-23T06:25:45.518Z,1.75
2018-03-23T06:28:11.569Z,1.65
2018-03-23T06:30:37.594Z,1.59
2018-03-23T06:33:03.630Z,1.58
2018-03-23T06:35:29.779Z,1.55
2018-03-23T06:37:55.806Z,1.50
2018-03-23T06:40:21.858Z,1.53
2018-03-23T06:42:47.797Z,1.55
2018-03-23T06:45:13.872Z,1.58
2018-03-23T06:47:39.878Z,1.58
2018-03-23T06:50:05.886Z,1.66
2018-03-23T06:52:31.946Z,1.67
2018-03-23T06:54:58.009Z,1.70
2018-03-23T06:57:24.042Z,1.79
2018-03-23T06:59:50.057Z,1.79
2018-03-23T07:02:16.066Z,1.73
2018-03-23T07:04:42.066Z,1.83
2018-03-23T07:07:08.075Z,1.85
2018-03-23T07:09:34.088Z,1.90
2018-03-23T07:12:00.106Z,1.93
2018-03-23T07:14:26.154Z,1.87
2018-03-23T07:16:52.157Z,1.89
2018-03-23T07:19:18.270Z,1.89
2018-03-23T07:21:44.353Z,1.85
2018-03-23T07:24:10.380Z,1.98
2018-03-23T07:26:36.392Z,1.96
2018-03-23T07:29:02.530Z,1.86
2018-03-23T07:31:28.538Z,1.97
2018-03-23T07:33:54.594Z,2.03
2018-03-23T07:36:20.603Z,2.10
2018-03-23T07:38:46.622Z,2.02
2018-03-23T07:41:12.656Z,2.03
2018-03-23T07:43:38.783Z,1.94
2018-03-23T07:46:04.810Z,2.02
2018-03-23T07:48:30.837Z,2.12
2018-03-23T07:50:56.878Z,2.11
2018-03-23T07:53:22.917Z,2.21
2018-03-23T07:55:48.926Z,2.21
2018-03-23T07:58:14.896Z,2.29
2018-03-23T08:00:40.954Z,2.16
2018-03-23T08:03:06.926Z,2.34
2018-03-23T08:05:33.276Z,2.40
2018-03-23T08:07:59.281Z,2.44
2018-03-23T08:10:25.316Z,2.41
2018-03-23T08:12:51.350Z,2.38
2018-03-23T08:15:17.397Z,2.32
2018-03-23T08:17:43.701Z,2.26
2018-03-23T08:20:09.773Z,2.29
2018-03-23T08:22:35.789Z,2.26
2018-03-23T08:25:01.794Z,2.33
2018-03-23T08:27:27.806Z,2.56
2018-03-23T08:29:53.924Z,2.59
2018-03-23T08:32:19.930Z,2.83
2018-03-23T08:34:45.886Z,2.71
2018-03-23T08:37:11.822Z,2.69
2018-03-23T08:39:37.955Z,2.93
2018-03-23T08:42:03.949Z,2.72
2018-03-23T08:44:29.973Z,2.65
2018-03-23T08:46:55.969Z,2.62
2018-03-23T08:49:22.021Z,2.57
2018-03-23T08:51:48.123Z,2.56
2018-03-23T08:54:14.180Z,2.59
2018-03-23T08:56:40.202Z,2.51
2018-03-23T08:59:06.272Z,2.64
2018-03-23T09:01:32.310Z,2.61
2018-03-23T09:03:58.432Z,2.80
2018-03-23T09:06:24.422Z,3.03
2018-03-23T09:08:50.469Z,2.93
2018-03-23T09:11:16.565Z,2.91
2018-03-23T09:13:42.614Z,2.75
2018-03-23T09:16:08.656Z,2.82
2018-03-23T09:18:34.653Z,2.88
2018-03-23T09:21:00.722Z,3.15
2018-03-23T09:23:26.729Z,3.20
2018-03-23T09:25:52.741Z,2.94
2018-03-23T09:28:18.773Z,3.25
2018-03-23T09:30:44.838Z,3.33
2018-03-23T09:33:10.849Z,3.19
2018-03-23T09:35:36.885Z,3.36
2018-03-23T09:38:02.841Z,3.46
2018-03-23T09:40:28.918Z,3.49
2018-03-23T09:42:54.934Z,3.42
2018-03-23T09:45:21.004Z,3.43
2018-03-23T09:47:47.015Z,3.42
2018-03-23T09:50:13.067Z,3.39
2018-03-23T09:52:39.070Z,3.30
2018-03-23T09:55:05.090Z,3.32
2018-03-23T09:57:31.099Z,3.55
2018-03-23T09:59:57.130Z,3.61
2018-03-23T10:02:23.226Z,3.60
2018-03-23T10:04:49.289Z,3.55
2018-03-23T10:07:15.326Z,3.54
2018-03-23T10:09:41.298Z,3.54
2018-03-23T10:12:07.417Z,3.37
2018-03-23T10:14:33.428Z,3.41
2018-03-23T10:16:59.568Z,3.46
2018-03-23T10:19:25.586Z,3.41
2018-03-23T10:21:51.615Z,3.59
2018-03-23T10:24:17.782Z,3.57
2018-03-23T10:26:43.842Z,3.53
2018-03-23T10:29:09.911Z,3.55
2018-03-23T10:31:35.948Z,3.45
2018-03-23T10:34:02.045Z,3.40
2018-03-23T10:36:28.102Z,3.52
2018-03-23T10:38:54.181Z,3.58
2018-03-23T10:41:20.199Z,3.68
2018-03-23T10:43:46.245Z,3.60
2018-03-23T10:46:12.334Z,3.40
2018-03-23T10:48:38.385Z,3.66
2018-03-23T10:51:04.485Z,3.75
2018-03-23T10:53:30.581Z,3.87
2018-03-23T10:55:56.706Z,3.75
2018-03-23T10:58:23.260Z,3.79
2018-03-23T11:00:55.343Z,4.20
2018-03-23T11:03:21.353Z,4.00
2018-03-23T11:05:47.431Z,4.41
2018-03-23T11:08:13.466Z,4.53
2018-03-23T11:10:39.504Z,4.52
2018-03-23T11:13:05.507Z,4.85
2018-03-23T11:15:31.510Z,4.80
2018-03-23T11:17:57.533Z,4.62
2018-03-23T11:20:23.544Z,4.82
2018-03-23T11:22:49.674Z,4.80
2018-03-23T11:25:15.694Z,4.48
2018-03-23T11:27:41.694Z,4.75
2018-03-23T11:30:07.769Z,4.83
2018-03-23T11:32:33.897Z,4.62
2018-03-23T11:34:59.921Z,4.56
2018-03-23T11:37:25.973Z,4.68
2018-03-23T11:39:51.989Z,4.68
2018-03-23T11:42:18.025Z,4.74
2018-03-23T11:44:44.331Z,4.96
2018-03-23T11:47:10.316Z,4.91
2018-03-23T11:49:36.479Z,5.11
2018-03-23T11:52:02.510Z,5.34
2018-03-23T11:54:28.573Z,5.13
2018-03-23T11:56:54.727Z,5.13
2018-03-23T11:59:20.750Z,5.50
2018-03-23T12:01:46.832Z,5.59
2018-03-23T12:04:12.793Z,6.07
2018-03-23T12:06:38.886Z,5.94
2018-03-23T12:09:05.082Z,5.74
2018-03-23T12:11:31.144Z,5.35
2018-03-23T12:13:57.205Z,5.26
2018-03-23T12:16:23.180Z,6.46
2018-03-23T12:18:49.209Z,7.16
2018-03-23T12:21:15.254Z,6.78
2018-03-23T12:23:41.290Z,6.80
2018-03-23T12:26:07.466Z,7.64
2018-03-23T12:28:33.569Z,7.94
2018-03-23T12:30:59.667Z,7.57
2018-03-23T12:33:25.765Z,7.26
2018-03-23T12:35:51.787Z,7.13
2018-03-23T12:38:17.809Z,7.36
2018-03-23T12:40:43.818Z,7.47
2018-03-23T12:43:09.822Z,7.41
2018-03-23T12:45:35.931Z,7.40
2018-03-23T12:48:01.996Z,7.37
2018-03-23T12:50:28.045Z,7.50
2018-03-23T12:52:54.054Z,7.64
2018-03-23T12:55:20.073Z,7.56
2018-03-23T12:57:46.187Z,7.00
2018-03-23T13:00:12.393Z,7.46
2018-03-23T13:02:45.375Z,7.48
2018-03-23T13:05:11.440Z,7.37
2018-03-23T13:07:37.648Z,8.01
2018-03-23T13:10:03.770Z,7.43
2018-03-23T13:12:29.805Z,7.59
2018-03-23T13:14:55.869Z,7.45
2018-03-23T13:17:21.877Z,6.76
2018-03-23T13:19:47.918Z,6.60
2018-03-23T13:22:13.930Z,6.18
2018-03-23T13:24:40.013Z,6.18
2018-03-23T13:27:06.049Z,6.26
2018-03-23T13:29:32.090Z,6.21
2018-03-23T13:32:00.403Z,6.13
2018-03-23T13:34:26.977Z,6.22
2018-03-23T13:36:53.302Z,6.27
2018-03-23T13:39:19.386Z,6.54
2018-03-23T13:41:45.414Z,6.52
2018-03-23T13:44:11.483Z,6.18
2018-03-23T13:46:37.520Z,6.32
2018-03-23T13:49:03.559Z,6.17
2018-03-23T13:51:29.690Z,6.21
2018-03-23T13:53:55.899Z,6.15
2018-03-23T13:56:21.894Z,6.28
2018-03-23T13:58:53.957Z,6.25
2018-03-23T14:01:26.104Z,6.13
2018-03-23T14:03:52.161Z,6.34
2018-03-23T14:06:19.624Z,6.43
2018-03-23T14:08:45.646Z,6.30
2018-03-23T14:11:11.794Z,6.37
2018-03-23T14:13:38.161Z,6.36
2018-03-23T14:16:04.166Z,6.24
2018-03-23T14:18:30.167Z,6.39
2018-03-23T14:20:56.242Z,6.09
2018-03-23T14:23:22.322Z,5.70
2018-03-23T14:25:48.250Z,5.73
2018-03-23T14:28:14.347Z,5.73
2018-03-23T14:30:40.310Z,5.57
2018-03-23T14:33:06.312Z,5.59
2018-03-23T14:35:32.336Z,5.68
2018-03-23T14:37:58.383Z,5.90
2018-03-23T14:40:24.409Z,5.91
2018-03-23T14:42:50.491Z,6.02
2018-03-23T14:45:16.546Z,6.01
2018-03-23T14:47:42.579Z,5.91
2018-03-23T14:50:08.608Z,5.80
2018-03-23T14:52:34.747Z,6.01
2018-03-23T14:55:00.781Z,5.95
2018-03-23T14:57:26.780Z,5.61
2018-03-23T14:59:52.835Z,5.70
2018-03-23T15:02:18.914Z,5.59
2018-03-23T15:04:44.961Z,5.57
2018-03-23T15:07:10.999Z,5.64
2018-03-23T15:09:37.037Z,5.67
2018-03-23T15:12:03.042Z,5.61
2018-03-23T15:14:30.145Z,5.57
2018-03-23T15:16:56.230Z,5.71
2018-03-23T15:19:22.252Z,5.67
2018-03-23T15:21:48.326Z,5.63
2018-03-23T15:24:14.364Z,5.70
2018-03-23T15:26:40.358Z,5.41
2018-03-23T15:29:06.403Z,5.34
2018-03-23T15:31:32.402Z,5.30
2018-03-23T15:33:58.501Z,5.24
2018-03-23T15:36:24.521Z,5.22
2018-03-23T15:38:50.887Z,5.20
2018-03-23T15:41:16.894Z,5.18
2018-03-23T15:43:43.035Z,5.22
2018-03-23T15:46:09.132Z,5.11
2018-03-23T15:48:35.094Z,5.23
2018-03-23T15:51:01.172Z,5.33
2018-03-23T15:53:27.129Z,5.51
2018-03-23T15:55:53.581Z,5.52
2018-03-23T15:58:19.635Z,5.49
2018-03-23T16:00:45.706Z,5.45
2018-03-23T16:03:11.703Z,5.47
2018-03-23T16:05:37.741Z,5.43
2018-03-23T16:08:03.763Z,5.53
2018-03-23T16:10:29.803Z,5.33
2018-03-23T16:12:55.865Z,5.41
2018-03-23T16:15:21.959Z,5.42
2018-03-23T16:17:47.982Z,5.40
2018-03-23T16:20:14.006Z,5.37
2018-03-23T16:22:39.958Z,5.40
2018-03-23T16:25:05.958Z,5.27
2018-03-23T16:27:31.993Z,5.22
2018-03-23T16:29:58.040Z,5.13
2018-03-23T16:32:24.113Z,5.15
2018-03-23T16:34:50.094Z,5.19
2018-03-23T16:37:16.199Z,5.15
2018-03-23T16:39:42.169Z,5.12
2018-03-23T16:42:08.172Z,5.10
2018-03-23T16:44:34.210Z,5.00
2018-03-23T16:47:00.221Z,5.00
2018-03-23T16:49:26.254Z,4.98
2018-03-23T16:51:52.300Z,4.97
2018-03-23T16:54:18.302Z,4.99
2018-03-23T16:56:44.402Z,4.95
2018-03-23T16:59:10.425Z,4.87
2018-03-23T17:01:36.441Z,4.87
2018-03-23T17:04:02.498Z,4.89
2018-03-23T17:06:28.485Z,4.91
2018-03-23T17:08:54.492Z,4.91
2018-03-23T17:11:20.533Z,4.89
2018-03-23T17:13:46.541Z,4.90
2018-03-23T17:16:12.517Z,4.85
2018-03-23T17:18:38.638Z,4.85
2018-03-23T17:21:04.666Z,4.78
2018-03-23T17:23:30.680Z,4.69
2018-03-23T17:25:56.746Z,4.58
2018-03-23T17:28:22.770Z,4.51
2018-03-23T17:30:48.769Z,4.40
2018-03-23T17:33:14.818Z,4.52
2018-03-23T17:35:40.837Z,4.62
2018-03-23T17:38:06.902Z,4.75
2018-03-23T17:40:32.897Z,4.77
2018-03-23T17:42:58.985Z,4.71
2018-03-23T17:45:24.989Z,4.74
2018-03-23T17:47:51.009Z,4.63
2018-03-23T17:50:17.003Z,4.43
2018-03-23T17:52:43.018Z,4.13
2018-03-23T17:55:09.089Z,4.05
2018-03-23T17:57:35.056Z,4.11
2018-03-23T18:00:01.170Z,4.16
2018-03-23T18:02:27.377Z,4.19
2018-03-23T18:05:01.047Z,4.05
2018-03-23T18:07:27.023Z,4.00
2018-03-23T18:09:53.036Z,3.97
2018-03-23T18:12:19.071Z,3.96
2018-03-23T18:14:45.065Z,3.99
2018-03-23T18:17:11.109Z,4.03
2018-03-23T18:19:37.125Z,4.04
2018-03-23T18:22:03.152Z,4.09
2018-03-23T18:24:29.159Z,4.11
2018-03-23T18:26:55.159Z,4.04
2018-03-23T18:29:21.200Z,4.09
2018-03-23T18:31:47.221Z,4.09
2018-03-23T18:34:13.197Z,4.12
2018-03-23T18:36:39.207Z,4.12
2018-03-23T18:39:05.222Z,4.16
2018-03-23T18:41:31.261Z,4.27
2018-03-23T18:43:57.303Z,4.31
2018-03-23T18:46:23.312Z,4.27
2018-03-23T18:48:49.390Z,4.06
2018-03-23T18:51:15.460Z,3.91
2018-03-23T18:53:41.497Z,3.85
2018-03-23T18:56:07.607Z,3.94
2018-03-23T18:58:33.564Z,3.98
2018-03-23T19:00:59.704Z,3.84
2018-03-23T19:03:25.685Z,3.69
2018-03-23T19:05:51.764Z,3.61
2018-03-23T19:08:17.774Z,3.58
2018-03-23T19:10:43.790Z,3.74
2018-03-23T19:13:09.878Z,3.76
2018-03-23T19:15:35.981Z,3.77
2018-03-23T19:18:01.940Z,3.80
2018-03-23T19:20:27.966Z,3.75
2018-03-23T19:22:53.986Z,3.76
2018-03-23T19:25:19.986Z,3.88
2018-03-23T19:27:45.962Z,3.81
2018-03-23T19:30:11.996Z,3.67
2018-03-23T19:32:38.022Z,3.64
2018-03-23T19:35:04.063Z,3.56
2018-03-23T19:37:30.093Z,3.60
2018-03-23T19:39:56.150Z,3.43
2018-03-23T19:42:22.191Z,3.43
2018-03-23T19:44:48.246Z,3.50
2018-03-23T19:47:14.266Z,3.55
2018-03-23T19:49:40.976Z,3.49
2018-03-23T19:52:07.004Z,3.51
2018-03-23T19:54:33.057Z,3.54
2018-03-23T19:56:59.039Z,3.54
2018-03-23T19:59:25.018Z,3.53
2018-03-23T20:01:51.097Z,3.53
2018-03-23T20:04:17.106Z,3.52
2018-03-23T20:06:43.133Z,3.54
2018-03-23T20:09:09.146Z,3.52
2018-03-23T20:11:35.166Z,3.42
2018-03-23T20:14:07.250Z,3.44
2018-03-23T20:16:33.349Z,3.36
2018-03-23T20:18:59.370Z,3.36
2018-03-23T20:21:25.413Z,3.20
2018-03-23T20:23:51.452Z,3.29
2018-03-23T20:26:17.477Z,3.39
2018-03-23T20:28:43.691Z,3.41
2018-03-23T20:31:09.897Z,3.34
2018-03-23T20:33:35.945Z,3.27
2018-03-23T20:36:02.012Z,3.21
2018-03-23T20:38:28.071Z,3.24
2018-03-23T20:40:54.051Z,3.30
2018-03-23T20:43:20.098Z,3.33
2018-03-23T20:45:46.155Z,3.32
2018-03-23T20:48:12.238Z,3.30
2018-03-23T20:50:38.258Z,3.27
2018-03-23T20:53:04.297Z,3.19
2018-03-23T20:55:30.344Z,3.16
2018-03-23T20:57:56.360Z,3.13
2018-03-23T21:00:22.417Z,3.12
2018-03-23T21:02:48.473Z,3.16
2018-03-23T21:05:14.441Z,3.19
2018-03-23T21:07:40.450Z,3.17
2018-03-23T21:10:06.492Z,3.25
2018-03-23T21:12:32.598Z,3.20
2018-03-23T21:15:04.566Z,3.22
2018-03-23T21:17:30.544Z,3.01
2018-03-23T21:19:56.588Z,2.93
2018-03-23T21:22:22.707Z,2.90
2018-03-23T21:24:48.877Z,2.87
2018-03-23T21:27:14.957Z,2.91
2018-03-23T21:29:41.837Z,2.92
2018-03-23T21:32:07.912Z,2.83
2018-03-23T21:34:33.946Z,2.85
2018-03-23T21:37:00.017Z,2.89
2018-03-23T21:39:26.131Z,2.87
2018-03-23T21:41:52.149Z,2.89
2018-03-23T21:44:18.152Z,2.83
2018-03-23T21:46:44.238Z,2.95
2018-03-23T21:49:10.237Z,2.98
2018-03-23T21:51:36.299Z,3.03
2018-03-23T21:54:02.689Z,3.00
2018-03-23T21:56:28.757Z,2.94
2018-03-23T21:58:54.875Z,2.97
2018-03-23T22:01:20.966Z,2.98
2018-03-23T22:03:47.039Z,3.03
2018-03-23T22:06:13.072Z,3.04
2018-03-23T22:08:39.094Z,3.12
2018-03-23T22:11:05.093Z,3.19
2018-03-23T22:13:31.117Z,3.09
2018-03-23T22:15:57.249Z,3.02
2018-03-23T22:18:23.303Z,2.85
2018-03-23T22:20:49.277Z,2.78
2018-03-23T22:23:15.326Z,2.85
2018-03-23T22:25:41.431Z,2.89
2018-03-23T22:28:08.254Z,2.84
2018-03-23T22:30:35.139Z,2.77
2018-03-23T22:33:01.194Z,2.72
2018-03-23T22:35:27.145Z,2.63
2018-03-23T22:37:53.221Z,2.55
2018-03-23T22:40:19.289Z,2.44
2018-03-23T22:42:45.309Z,2.34
2018-03-23T22:45:11.401Z,2.37
2018-03-23T22:47:37.457Z,2.43
2018-03-23T22:50:03.501Z,2.32
2018-03-23T22:52:29.504Z,2.49
2018-03-23T22:54:55.537Z,2.50
2018-03-23T22:57:21.541Z,2.45
2018-03-23T22:59:47.569Z,2.37
2018-03-23T23:02:13.715Z,2.43
2018-03-23T23:04:39.708Z,2.43
2018-03-23T23:07:05.747Z,2.30
2018-03-23T23:09:31.792Z,2.11
2018-03-23T23:11:57.806Z,2.25
2018-03-23T23:14:23.805Z,2.38
2018-03-23T23:16:49.809Z,2.45
2018-03-23T23:19:15.832Z,2.50
2018-03-23T23:21:42.200Z,2.47
2018-03-23T23:24:08.254Z,2.43
2018-03-23T23:26:34.294Z,2.35
2018-03-23T23:29:01.241Z,2.32
2018-03-23T23:31:27.197Z,2.31
2018-03-23T23:33:53.229Z,2.32
2018-03-23T23:36:19.230Z,2.32
2018-03-23T23:38:45.265Z,2.35
2018-03-23T23:41:11.253Z,2.34
2018-03-23T23:43:37.270Z,2.25
2018-03-23T23:46:03.282Z,2.17
2018-03-23T23:48:29.339Z,2.20
2018-03-23T23:50:55.277Z,2.22
2018-03-23T23:53:21.317Z,2.22
2018-03-23T23:55:47.349Z,2.21
2018-03-23T23:58:13.361Z,2.16
